sensor_id;sensor_type;location;lat;lon;timestamp;pressure;altitude;pressure_sealevel;temperature;humidity
12636;BME280;6383;50.830;7.210;2023-04-06T00:02:09;101082.28;;;6.54;46.21
12636;BME280;6383;50.830;7.210;2023-04-06T00:04:38;101089.03;;;6.52;46.98
12636;BME280;6383;50.830;7.210;2023-04-06T00:07:05;101079.56;;;6.49;47.05
12636;BME280;6383;50.830;7.210;2023-04-06T00:09:32;101080.06;;;6.46;47.38
12636;BME280;6383;50.830;7.210;2023-04-06T00:12:03;101088.69;;;6.43;46.82
12636;BME280;6383;50.830;7.210;2023-04-06T00:14:31;101076.75;;;6.39;47.57
12636;BME280;6383;50.830;7.210;2023-04-06T00:17:00;101080.56;;;6.38;47.33
12636;BME280;6383;50.830;7.210;2023-04-06T00:19:27;101082.72;;;6.36;47.82
12636;BME280;6383;50.830;7.210;2023-04-06T00:21:55;101070.28;;;6.35;47.56
12636;BME280;6383;50.830;7.210;2023-04-06T00:24:24;101070.28;;;6.35;47.63
12636;BME280;6383;50.830;7.210;2023-04-06T00:26:53;101070.28;;;6.35;47.65
12636;BME280;6383;50.830;7.210;2023-04-06T00:29:24;101068.38;;;6.35;47.63
12636;BME280;6383;50.830;7.210;2023-04-06T00:31:59;101061.59;;;6.33;47.41
12636;BME280;6383;50.830;7.210;2023-04-06T00:34:28;101059.16;;;6.31;48.13
12636;BME280;6383;50.830;7.210;2023-04-06T00:36:57;101066.44;;;6.31;47.88
12636;BME280;6383;50.830;7.210;2023-04-06T00:39:33;101055.91;;;6.29;47.95
12636;BME280;6383;50.830;7.210;2023-04-06T00:42:10;101058.28;;;6.26;47.96
12636;BME280;6383;50.830;7.210;2023-04-06T00:44:40;101057.22;;;6.22;48.48
12636;BME280;6383;50.830;7.210;2023-04-06T00:47:09;101050.69;;;6.18;48.28
12636;BME280;6383;50.830;7.210;2023-04-06T00:49:37;101046.09;;;6.18;48.59
12636;BME280;6383;50.830;7.210;2023-04-06T00:52:07;101039.88;;;6.18;48.78
12636;BME280;6383;50.830;7.210;2023-04-06T00:54:36;101045.28;;;6.18;48.25
12636;BME280;6383;50.830;7.210;2023-04-06T00:57:04;101042.56;;;6.18;48.78
12636;BME280;6383;50.830;7.210;2023-04-06T00:59:33;101037.16;;;6.18;48.57
12636;BME280;6383;50.830;7.210;2023-04-06T01:02:03;101023.09;;;6.16;48.56
12636;BME280;6383;50.830;7.210;2023-04-06T01:04:33;101026.31;;;6.13;48.86
12636;BME280;6383;50.830;7.210;2023-04-06T01:07:01;101019.28;;;6.12;49.12
12636;BME280;6383;50.830;7.210;2023-04-06T01:09:29;101019.84;;;6.14;49.23
12636;BME280;6383;50.830;7.210;2023-04-06T01:11:58;101021.72;;;6.13;48.93
12636;BME280;6383;50.830;7.210;2023-04-06T01:14:27;101017.13;;;6.14;48.91
12636;BME280;6383;50.830;7.210;2023-04-06T01:16:57;101020.09;;;6.12;49.36
12636;BME280;6383;50.830;7.210;2023-04-06T01:19:28;101018.72;;;6.10;48.92
12636;BME280;6383;50.830;7.210;2023-04-06T01:21:56;101019.25;;;6.07;48.87
12636;BME280;6383;50.830;7.210;2023-04-06T01:24:26;101015.44;;;6.03;49.08
12636;BME280;6383;50.830;7.210;2023-04-06T01:26:55;101005.69;;;6.01;49.34
12636;BME280;6383;50.830;7.210;2023-04-06T01:29:24;101006.78;;;6.00;49.50
12636;BME280;6383;50.830;7.210;2023-04-06T01:31:53;100998.94;;;5.99;49.13
12636;BME280;6383;50.830;7.210;2023-04-06T01:34:22;101002.13;;;5.96;49.27
12636;BME280;6383;50.830;7.210;2023-04-06T01:36:49;100992.41;;;5.95;49.09
12636;BME280;6383;50.830;7.210;2023-04-06T01:39:16;101002.13;;;5.96;49.16
12636;BME280;6383;50.830;7.210;2023-04-06T01:41:47;100995.09;;;5.95;49.38
12636;BME280;6383;50.830;7.210;2023-04-06T01:44:17;100988.63;;;5.91;49.37
12636;BME280;6383;50.830;7.210;2023-04-06T01:46:46;100990.50;;;5.90;49.39
12636;BME280;6383;50.830;7.210;2023-04-06T01:49:14;100985.34;;;5.89;49.44
12636;BME280;6383;50.830;7.210;2023-04-06T01:51:43;100986.38;;;5.88;49.62
12636;BME280;6383;50.830;7.210;2023-04-06T01:54:10;100989.34;;;5.86;49.65
12636;BME280;6383;50.830;7.210;2023-04-06T01:56:38;100988.53;;;5.86;49.71
12636;BME280;6383;50.830;7.210;2023-04-06T01:59:08;100988.78;;;5.84;49.93
12636;BME280;6383;50.830;7.210;2023-04-06T02:01:37;100988.47;;;5.81;49.87
12636;BME280;6383;50.830;7.210;2023-04-06T02:04:07;100982.56;;;5.79;49.84
12636;BME280;6383;50.830;7.210;2023-04-06T02:06:35;100983.06;;;5.76;49.94
12636;BME280;6383;50.830;7.210;2023-04-06T02:09:04;100976.28;;;5.73;49.79
12636;BME280;6383;50.830;7.210;2023-04-06T02:11:32;100974.09;;;5.70;49.98
12636;BME280;6383;50.830;7.210;2023-04-06T02:14:01;100974.59;;;5.67;50.11
12636;BME280;6383;50.830;7.210;2023-04-06T02:16:31;100971.63;;;5.63;50.15
12636;BME280;6383;50.830;7.210;2023-04-06T02:18:59;100977.28;;;5.62;50.11
12636;BME280;6383;50.830;7.210;2023-04-06T02:21:28;100973.47;;;5.58;50.54
12636;BME280;6383;50.830;7.210;2023-04-06T02:23:57;100979.94;;;5.57;50.56
12636;BME280;6383;50.830;7.210;2023-04-06T02:26:26;100977.22;;;5.57;50.40
12636;BME280;6383;50.830;7.210;2023-04-06T02:28:54;100975.84;;;5.54;50.42
12636;BME280;6383;50.830;7.210;2023-04-06T02:31:23;100973.66;;;5.51;50.87
12636;BME280;6383;50.830;7.210;2023-04-06T02:33:52;100976.34;;;5.51;50.74
12636;BME280;6383;50.830;7.210;2023-04-06T02:36:20;100983.63;;;5.51;51.15
12636;BME280;6383;50.830;7.210;2023-04-06T02:38:47;100983.63;;;5.51;50.84
12636;BME280;6383;50.830;7.210;2023-04-06T02:41:17;100977.44;;;5.50;50.92
12636;BME280;6383;50.830;7.210;2023-04-06T02:43:46;100976.06;;;5.48;50.89
12636;BME280;6383;50.830;7.210;2023-04-06T02:46:15;100971.50;;;5.48;50.96
12636;BME280;6383;50.830;7.210;2023-04-06T02:48:43;100969.06;;;5.47;51.04
12636;BME280;6383;50.830;7.210;2023-04-06T02:51:12;100968.22;;;5.46;51.06
12636;BME280;6383;50.830;7.210;2023-04-06T02:53:41;100976.06;;;5.48;50.75
12636;BME280;6383;50.830;7.210;2023-04-06T02:56:10;100968.50;;;5.50;51.19
12636;BME280;6383;50.830;7.210;2023-04-06T02:58:38;100967.44;;;5.51;51.04
12636;BME280;6383;50.830;7.210;2023-04-06T03:01:07;100967.69;;;5.49;51.06
12636;BME280;6383;50.830;7.210;2023-04-06T03:03:35;100959.06;;;5.47;50.93
12636;BME280;6383;50.830;7.210;2023-04-06T03:06:04;100957.94;;;5.43;51.06
12636;BME280;6383;50.830;7.210;2023-04-06T03:08:34;100966.28;;;5.42;51.02
12636;BME280;6383;50.830;7.210;2023-04-06T03:11:02;100963.03;;;5.40;51.20
12636;BME280;6383;50.830;7.210;2023-04-06T03:13:31;100955.44;;;5.37;51.18
12636;BME280;6383;50.830;7.210;2023-04-06T03:15:59;100959.50;;;5.34;51.09
12636;BME280;6383;50.830;7.210;2023-04-06T03:18:27;100952.72;;;5.31;51.41
12636;BME280;6383;50.830;7.210;2023-04-06T03:20:57;100957.56;;;5.29;51.46
12636;BME280;6383;50.830;7.210;2023-04-06T03:23:26;100956.16;;;5.27;51.52
12636;BME280;6383;50.830;7.210;2023-04-06T03:25:56;100960.44;;;5.23;51.86
12636;BME280;6383;50.830;7.210;2023-04-06T03:28:25;100963.13;;;5.23;51.52
12636;BME280;6383;50.830;7.210;2023-04-06T03:30:53;100971.50;;;5.21;51.93
12636;BME280;6383;50.830;7.210;2023-04-06T03:33:22;100962.03;;;5.19;51.52
12636;BME280;6383;50.830;7.210;2023-04-06T03:35:54;100964.19;;;5.17;51.70
12636;BME280;6383;50.830;7.210;2023-04-06T03:38:22;100964.44;;;5.15;51.54
12636;BME280;6383;50.830;7.210;2023-04-06T03:40:51;100971.72;;;5.15;51.50
12636;BME280;6383;50.830;7.210;2023-04-06T03:43:22;100971.97;;;5.13;52.00
12636;BME280;6383;50.830;7.210;2023-04-06T03:45:50;100970.81;;;5.09;51.86
12636;BME280;6383;50.830;7.210;2023-04-06T03:48:19;100971.91;;;5.08;51.95
12636;BME280;6383;50.830;7.210;2023-04-06T03:50:48;100969.19;;;5.08;51.79
12636;BME280;6383;50.830;7.210;2023-04-06T03:53:17;100973.03;;;5.12;51.62
12636;BME280;6383;50.830;7.210;2023-04-06T03:55:47;100973.03;;;5.12;51.92
12636;BME280;6383;50.830;7.210;2023-04-06T03:58:14;100969.50;;;5.12;51.78
12636;BME280;6383;50.830;7.210;2023-04-06T04:00:44;100963.56;;;5.10;51.89
12636;BME280;6383;50.830;7.210;2023-04-06T04:03:13;100962.72;;;5.09;52.03
12636;BME280;6383;50.830;7.210;2023-04-06T04:05:43;100958.41;;;5.08;51.77
12636;BME280;6383;50.830;7.210;2023-04-06T04:08:10;100966.50;;;5.08;51.68
12636;BME280;6383;50.830;7.210;2023-04-06T04:10:37;100969.44;;;5.07;51.77
12636;BME280;6383;50.830;7.210;2023-04-06T04:13:05;100967.00;;;5.05;51.95
12636;BME280;6383;50.830;7.210;2023-04-06T04:15:33;100977.25;;;5.03;51.98
12636;BME280;6383;50.830;7.210;2023-04-06T04:18:01;100974.56;;;5.03;51.91
12636;BME280;6383;50.830;7.210;2023-04-06T04:20:30;100972.38;;;5.00;51.92
12636;BME280;6383;50.830;7.210;2023-04-06T04:22:58;100975.56;;;4.97;52.02
12636;BME280;6383;50.830;7.210;2023-04-06T04:25:28;100973.34;;;4.94;51.99
12636;BME280;6383;50.830;7.210;2023-04-06T04:27:55;100978.75;;;4.94;51.90
12636;BME280;6383;50.830;7.210;2023-04-06T04:30:24;100969.03;;;4.93;52.12
12636;BME280;6383;50.830;7.210;2023-04-06T04:32:52;100978.19;;;4.92;52.25
12636;BME280;6383;50.830;7.210;2023-04-06T04:35:22;100962.53;;;4.89;51.87
12636;BME280;6383;50.830;7.210;2023-04-06T04:37:51;100969.81;;;4.88;52.09
12636;BME280;6383;50.830;7.210;2023-04-06T04:40:18;100972.50;;;4.88;52.24
12636;BME280;6383;50.830;7.210;2023-04-06T04:42:49;100977.59;;;4.85;52.30
12636;BME280;6383;50.830;7.210;2023-04-06T04:45:19;100966.47;;;4.81;52.22
12636;BME280;6383;50.830;7.210;2023-04-06T04:47:48;100975.88;;;4.79;51.99
12636;BME280;6383;50.830;7.210;2023-04-06T04:50:16;100978.81;;;4.77;52.42
12636;BME280;6383;50.830;7.210;2023-04-06T04:52:45;100983.41;;;4.77;52.03
12636;BME280;6383;50.830;7.210;2023-04-06T04:55:15;100979.34;;;4.74;52.60
12636;BME280;6383;50.830;7.210;2023-04-06T04:57:43;100975.84;;;4.74;52.67
12636;BME280;6383;50.830;7.210;2023-04-06T05:00:12;100975.84;;;4.74;52.36
12636;BME280;6383;50.830;7.210;2023-04-06T05:02:41;100975.03;;;4.73;52.51
12636;BME280;6383;50.830;7.210;2023-04-06T05:05:10;100977.97;;;4.72;52.57
12636;BME280;6383;50.830;7.210;2023-04-06T05:07:37;100986.88;;;4.72;52.56
12636;BME280;6383;50.830;7.210;2023-04-06T05:10:07;100980.91;;;4.70;52.48
12636;BME280;6383;50.830;7.210;2023-04-06T05:12:36;100981.97;;;4.69;52.78
12636;BME280;6383;50.830;7.210;2023-04-06T05:15:06;100980.59;;;4.67;52.88
12636;BME280;6383;50.830;7.210;2023-04-06T05:17:34;100982.22;;;4.68;52.62
12636;BME280;6383;50.830;7.210;2023-04-06T05:20:04;100977.09;;;4.66;52.49
12636;BME280;6383;50.830;7.210;2023-04-06T05:22:32;100984.09;;;4.67;52.46
12636;BME280;6383;50.830;7.210;2023-04-06T05:25:01;100983.03;;;4.68;52.46
12636;BME280;6383;50.830;7.210;2023-04-06T05:27:30;100982.22;;;4.68;53.18
12636;BME280;6383;50.830;7.210;2023-04-06T05:29:59;100987.38;;;4.69;52.58
12636;BME280;6383;50.830;7.210;2023-04-06T05:32:28;100978.47;;;4.69;52.97
12636;BME280;6383;50.830;7.210;2023-04-06T05:34:57;100979.03;;;4.71;52.70
12636;BME280;6383;50.830;7.210;2023-04-06T05:37:25;100978.22;;;4.70;53.06
12636;BME280;6383;50.830;7.210;2023-04-06T05:39:54;100980.66;;;4.72;53.35
12636;BME280;6383;50.830;7.210;2023-04-06T05:42:23;100981.22;;;4.74;53.53
12636;BME280;6383;50.830;7.210;2023-04-06T05:44:52;100973.69;;;4.76;53.37
12636;BME280;6383;50.830;7.210;2023-04-06T05:47:21;100981.53;;;4.77;53.34
12636;BME280;6383;50.830;7.210;2023-04-06T05:49:48;100975.63;;;4.80;53.28
12636;BME280;6383;50.830;7.210;2023-04-06T05:52:17;100981.34;;;4.84;53.31
12636;BME280;6383;50.830;7.210;2023-04-06T05:54:45;100975.19;;;4.88;53.21
12636;BME280;6383;50.830;7.210;2023-04-06T05:57:12;100980.63;;;4.93;53.05
12636;BME280;6383;50.830;7.210;2023-04-06T05:59:39;100980.94;;;4.97;53.11
12636;BME280;6383;50.830;7.210;2023-04-06T06:02:08;100986.91;;;4.99;53.05
12636;BME280;6383;50.830;7.210;2023-04-06T06:04:37;100980.19;;;5.02;53.29
12636;BME280;6383;50.830;7.210;2023-04-06T06:07:06;100985.34;;;5.03;53.09
12636;BME280;6383;50.830;7.210;2023-04-06T06:09:34;100983.19;;;5.05;53.23
12636;BME280;6383;50.830;7.210;2023-04-06T06:12:03;100984.31;;;5.09;53.02
12636;BME280;6383;50.830;7.210;2023-04-06T06:14:30;100981.44;;;5.16;52.85
12636;BME280;6383;50.830;7.210;2023-04-06T06:16:59;100980.94;;;5.19;53.26
12636;BME280;6383;50.830;7.210;2023-04-06T06:19:30;100976.88;;;5.21;53.41
12636;BME280;6383;50.830;7.210;2023-04-06T06:21:58;100977.19;;;5.25;53.54
12636;BME280;6383;50.830;7.210;2023-04-06T06:24:29;100976.69;;;5.28;53.36
12636;BME280;6383;50.830;7.210;2023-04-06T06:26:58;100976.19;;;5.31;53.33
12636;BME280;6383;50.830;7.210;2023-04-06T06:29:26;100976.22;;;5.36;53.45
12636;BME280;6383;50.830;7.210;2023-04-06T06:31:54;100971.13;;;5.40;53.47
12636;BME280;6383;50.830;7.210;2023-04-06T06:34:22;100974.13;;;5.43;53.75
12636;BME280;6383;50.830;7.210;2023-04-06T06:36:53;100971.50;;;5.48;53.91
12636;BME280;6383;50.830;7.210;2023-04-06T06:39:21;100976.09;;;5.53;53.77
12636;BME280;6383;50.830;7.210;2023-04-06T06:41:50;100976.16;;;5.58;53.58
12636;BME280;6383;50.830;7.210;2023-04-06T06:44:18;100968.13;;;5.63;53.49
12636;BME280;6383;50.830;7.210;2023-04-06T06:46:46;100974.34;;;5.68;53.07
12636;BME280;6383;50.830;7.210;2023-04-06T06:49:15;100970.63;;;5.75;53.45
12636;BME280;6383;50.830;7.210;2023-04-06T06:51:45;100972.03;;;5.82;54.08
12636;BME280;6383;50.830;7.210;2023-04-06T06:54:15;100972.66;;;5.89;53.32
12636;BME280;6383;50.830;7.210;2023-04-06T06:56:43;100968.91;;;5.95;53.59
12636;BME280;6383;50.830;7.210;2023-04-06T06:59:12;100967.63;;;6.03;53.52
12636;BME280;6383;50.830;7.210;2023-04-06T07:01:41;100967.94;;;6.12;53.22
12636;BME280;6383;50.830;7.210;2023-04-06T07:04:10;100968.53;;;6.19;52.61
12636;BME280;6383;50.830;7.210;2023-04-06T07:06:39;100962.63;;;6.27;52.81
12636;BME280;6383;50.830;7.210;2023-04-06T07:09:08;100955.91;;;6.34;53.26
12636;BME280;6383;50.830;7.210;2023-04-06T07:11:37;100954.88;;;6.46;53.02
12636;BME280;6383;50.830;7.210;2023-04-06T07:14:06;100958.97;;;6.53;52.90
12636;BME280;6383;50.830;7.210;2023-04-06T07:16:35;100956.84;;;6.60;52.45
12636;BME280;6383;50.830;7.210;2023-04-06T07:19:03;100960.66;;;6.69;52.48
12636;BME280;6383;50.830;7.210;2023-04-06T07:21:32;100947.44;;;6.78;51.86
12636;BME280;6383;50.830;7.210;2023-04-06T07:24:01;100950.44;;;6.87;52.03
12636;BME280;6383;50.830;7.210;2023-04-06T07:26:29;100949.69;;;6.96;52.64
12636;BME280;6383;50.830;7.210;2023-04-06T07:28:59;100952.41;;;7.06;51.65
12636;BME280;6383;50.830;7.210;2023-04-06T07:31:27;100953.22;;;7.17;51.41
12636;BME280;6383;50.830;7.210;2023-04-06T07:33:56;100949.16;;;7.30;51.32
12636;BME280;6383;50.830;7.210;2023-04-06T07:36:25;100955.69;;;7.44;50.88
12636;BME280;6383;50.830;7.210;2023-04-06T07:38:54;100950.53;;;7.58;49.66
12636;BME280;6383;50.830;7.210;2023-04-06T07:41:23;100951.09;;;7.70;50.54
12636;BME280;6383;50.830;7.210;2023-04-06T07:43:52;100945.13;;;7.83;50.00
12636;BME280;6383;50.830;7.210;2023-04-06T07:46:23;100941.88;;;7.96;49.84
12636;BME280;6383;50.830;7.210;2023-04-06T07:48:52;100944.00;;;8.09;48.57
12636;BME280;6383;50.830;7.210;2023-04-06T07:51:21;100948.56;;;8.24;48.09
12636;BME280;6383;50.830;7.210;2023-04-06T07:53:51;100943.41;;;8.38;48.47
12636;BME280;6383;50.830;7.210;2023-04-06T07:56:20;100946.34;;;8.52;48.35
12636;BME280;6383;50.830;7.210;2023-04-06T07:58:49;100939.50;;;8.64;48.73
12636;BME280;6383;50.830;7.210;2023-04-06T08:01:18;100934.56;;;8.76;48.35
12636;BME280;6383;50.830;7.210;2023-04-06T08:03:48;100938.28;;;8.91;48.15
12636;BME280;6383;50.830;7.210;2023-04-06T08:06:18;100937.97;;;9.02;48.03
12636;BME280;6383;50.830;7.210;2023-04-06T08:08:47;100933.53;;;9.16;47.46
12636;BME280;6383;50.830;7.210;2023-04-06T08:11:14;100936.69;;;9.29;47.68
12636;BME280;6383;50.830;7.210;2023-04-06T08:13:44;100943.13;;;9.43;47.10
12636;BME280;6383;50.830;7.210;2023-04-06T08:16:13;100936.75;;;9.58;46.60
12636;BME280;6383;50.830;7.210;2023-04-06T08:18:42;100934.19;;;9.71;47.23
12636;BME280;6383;50.830;7.210;2023-04-06T08:21:11;100924.28;;;9.85;46.72
12636;BME280;6383;50.830;7.210;2023-04-06T08:23:40;100926.31;;;9.99;46.50
12636;BME280;6383;50.830;7.210;2023-04-06T08:26:09;100922.38;;;10.10;45.95
12636;BME280;6383;50.830;7.210;2023-04-06T08:28:38;100923.13;;;10.20;45.07
12636;BME280;6383;50.830;7.210;2023-04-06T08:31:08;100914.03;;;10.30;45.79
12636;BME280;6383;50.830;7.210;2023-04-06T08:33:40;100918.25;;;10.41;45.36
12636;BME280;6383;50.830;7.210;2023-04-06T08:36:12;100919.44;;;10.54;45.73
12636;BME280;6383;50.830;7.210;2023-04-06T08:38:40;100917.44;;;10.65;45.43
12636;BME280;6383;50.830;7.210;2023-04-06T08:41:11;100913.47;;;10.76;45.40
12636;BME280;6383;50.830;7.210;2023-04-06T08:43:43;100918.75;;;10.86;44.11
12636;BME280;6383;50.830;7.210;2023-04-06T08:46:12;100915.41;;;10.94;44.58
12636;BME280;6383;50.830;7.210;2023-04-06T08:48:42;100922.91;;;11.02;45.07
12636;BME280;6383;50.830;7.210;2023-04-06T08:51:12;100914.88;;;11.11;44.13
12636;BME280;6383;50.830;7.210;2023-04-06T08:53:42;100909.88;;;11.18;44.26
12636;BME280;6383;50.830;7.210;2023-04-06T08:56:11;100912.75;;;11.26;44.84
12636;BME280;6383;50.830;7.210;2023-04-06T08:58:39;100906.31;;;11.36;45.56
12636;BME280;6383;50.830;7.210;2023-04-06T09:01:11;100910.06;;;11.40;44.66
12636;BME280;6383;50.830;7.210;2023-04-06T09:03:42;100908.78;;;11.51;44.09
12636;BME280;6383;50.830;7.210;2023-04-06T09:06:10;100904.25;;;11.60;43.66
12636;BME280;6383;50.830;7.210;2023-04-06T09:08:41;100901.09;;;11.72;43.53
12636;BME280;6383;50.830;7.210;2023-04-06T09:11:10;100907.19;;;11.83;44.53
12636;BME280;6383;50.830;7.210;2023-04-06T09:13:46;100905.06;;;11.93;44.39
12636;BME280;6383;50.830;7.210;2023-04-06T09:16:15;100899.94;;;12.06;43.60
12636;BME280;6383;50.830;7.210;2023-04-06T09:18:45;100902.97;;;12.18;43.37
12636;BME280;6383;50.830;7.210;2023-04-06T09:21:17;100900.88;;;12.28;43.83
12636;BME280;6383;50.830;7.210;2023-04-06T09:23:46;100905.00;;;12.40;43.57
12636;BME280;6383;50.830;7.210;2023-04-06T09:26:16;100899.63;;;12.48;43.55
12636;BME280;6383;50.830;7.210;2023-04-06T09:28:48;100894.28;;;12.57;43.27
12636;BME280;6383;50.830;7.210;2023-04-06T09:31:21;100889.19;;;12.64;42.47
12636;BME280;6383;50.830;7.210;2023-04-06T09:33:51;100883.34;;;12.70;43.07
12636;BME280;6383;50.830;7.210;2023-04-06T09:36:29;100888.34;;;12.77;42.88
12636;BME280;6383;50.830;7.210;2023-04-06T09:39:01;100884.41;;;12.83;42.57
12636;BME280;6383;50.830;7.210;2023-04-06T09:41:31;100894.44;;;12.88;42.54
12636;BME280;6383;50.830;7.210;2023-04-06T09:44:03;100889.63;;;12.93;42.21
12636;BME280;6383;50.830;7.210;2023-04-06T09:46:33;100882.16;;;12.99;42.17
12636;BME280;6383;50.830;7.210;2023-04-06T09:49:02;100878.66;;;13.07;42.27
12636;BME280;6383;50.830;7.210;2023-04-06T09:51:36;100879.91;;;13.15;42.00
12636;BME280;6383;50.830;7.210;2023-04-06T09:54:07;100879.13;;;13.23;41.54
12636;BME280;6383;50.830;7.210;2023-04-06T09:56:42;100881.66;;;13.33;41.24
12636;BME280;6383;50.830;7.210;2023-04-06T09:59:18;100869.63;;;13.43;41.67
12636;BME280;6383;50.830;7.210;2023-04-06T10:01:51;100864.72;;;13.53;41.30
12636;BME280;6383;50.830;7.210;2023-04-06T10:04:31;100861.75;;;13.63;41.61
12636;BME280;6383;50.830;7.210;2023-04-06T10:07:05;100850.34;;;13.70;41.31
12636;BME280;6383;50.830;7.210;2023-04-06T10:09:36;100858.25;;;13.80;41.85
12636;BME280;6383;50.830;7.210;2023-04-06T10:12:06;100851.41;;;13.91;40.66
12636;BME280;6383;50.830;7.210;2023-04-06T10:14:34;100846.91;;;13.95;40.38
12636;BME280;6383;50.830;7.210;2023-04-06T10:17:04;100850.81;;;14.03;39.95
12636;BME280;6383;50.830;7.210;2023-04-06T10:19:39;100856.63;;;14.10;40.04
12636;BME280;6383;50.830;7.210;2023-04-06T10:22:12;100849.88;;;14.16;40.41
12636;BME280;6383;50.830;7.210;2023-04-06T10:24:48;100852.97;;;14.23;39.81
12636;BME280;6383;50.830;7.210;2023-04-06T10:27:27;100847.81;;;14.30;39.92
12636;BME280;6383;50.830;7.210;2023-04-06T10:30:02;100849.81;;;14.38;39.49
12636;BME280;6383;50.830;7.210;2023-04-06T10:32:35;100840.31;;;14.44;40.05
12636;BME280;6383;50.830;7.210;2023-04-06T10:35:08;100846.78;;;14.49;39.81
12636;BME280;6383;50.830;7.210;2023-04-06T10:38:00;100842.91;;;14.50;39.65
12636;BME280;6383;50.830;7.210;2023-04-06T10:40:30;100851.94;;;14.50;38.42
12636;BME280;6383;50.830;7.210;2023-04-06T10:43:08;100840.19;;;14.50;38.85
12636;BME280;6383;50.830;7.210;2023-04-06T10:45:37;100848.88;;;14.52;39.29
12636;BME280;6383;50.830;7.210;2023-04-06T10:48:13;100849.03;;;14.55;39.12
12636;BME280;6383;50.830;7.210;2023-04-06T10:50:44;100837.44;;;14.58;38.53
12636;BME280;6383;50.830;7.210;2023-04-06T10:53:21;100833.44;;;14.64;38.53
12636;BME280;6383;50.830;7.210;2023-04-06T10:55:54;100835.22;;;14.69;38.08
12636;BME280;6383;50.830;7.210;2023-04-06T10:58:25;100826.34;;;14.72;38.19
12636;BME280;6383;50.830;7.210;2023-04-06T11:00:54;100826.81;;;14.74;37.56
12636;BME280;6383;50.830;7.210;2023-04-06T11:03:22;100820.69;;;14.77;37.46
12636;BME280;6383;50.830;7.210;2023-04-06T11:05:51;100825.88;;;14.78;38.15
12636;BME280;6383;50.830;7.210;2023-04-06T11:08:25;100831.50;;;14.82;37.59
12636;BME280;6383;50.830;7.210;2023-04-06T11:11:09;100833.59;;;14.85;37.92
12636;BME280;6383;50.830;7.210;2023-04-06T11:13:40;100823.91;;;14.88;36.75
12636;BME280;6383;50.830;7.210;2023-04-06T11:16:13;100828.28;;;14.89;36.85
12636;BME280;6383;50.830;7.210;2023-04-06T11:18:51;100833.91;;;14.92;37.96
12636;BME280;6383;50.830;7.210;2023-04-06T11:21:30;100833.78;;;14.97;37.11
12636;BME280;6383;50.830;7.210;2023-04-06T11:24:07;100829.72;;;15.03;36.65
12636;BME280;6383;50.830;7.210;2023-04-06T11:26:44;100831.19;;;15.09;37.09
12636;BME280;6383;50.830;7.210;2023-04-06T11:29:21;100833.28;;;15.12;36.54
12636;BME280;6383;50.830;7.210;2023-04-06T11:31:50;100831.00;;;15.14;36.56
12636;BME280;6383;50.830;7.210;2023-04-06T11:34:21;100825.19;;;15.16;36.62
12636;BME280;6383;50.830;7.210;2023-04-06T11:36:55;100828.72;;;15.16;36.28
12636;BME280;6383;50.830;7.210;2023-04-06T11:39:25;100827.44;;;15.14;36.50
12636;BME280;6383;50.830;7.210;2023-04-06T11:41:57;100830.53;;;15.12;35.65
12636;BME280;6383;50.830;7.210;2023-04-06T11:44:30;100828.94;;;15.11;35.65
12636;BME280;6383;50.830;7.210;2023-04-06T11:47:00;100821.03;;;15.10;35.43
12636;BME280;6383;50.830;7.210;2023-04-06T11:49:29;100820.22;;;15.09;34.92
12636;BME280;6383;50.830;7.210;2023-04-06T11:52:00;100827.94;;;15.07;36.19
12636;BME280;6383;50.830;7.210;2023-04-06T11:54:30;100823.09;;;15.04;35.35
12636;BME280;6383;50.830;7.210;2023-04-06T11:57:01;100819.06;;;15.02;34.92
12636;BME280;6383;50.830;7.210;2023-04-06T11:59:31;100820.53;;;14.99;35.53
12636;BME280;6383;50.830;7.210;2023-04-06T12:01:58;100816.97;;;14.99;36.18
12636;BME280;6383;50.830;7.210;2023-04-06T12:04:28;100814.22;;;14.99;35.58
12636;BME280;6383;50.830;7.210;2023-04-06T12:06:57;100809.56;;;14.99;35.65
12636;BME280;6383;50.830;7.210;2023-04-06T12:09:27;100816.66;;;15.00;35.88
12636;BME280;6383;50.830;7.210;2023-04-06T12:11:56;100809.41;;;15.04;36.09
12636;BME280;6383;50.830;7.210;2023-04-06T12:14:27;100812.31;;;15.08;36.10
12636;BME280;6383;50.830;7.210;2023-04-06T12:16:56;100812.47;;;15.11;36.64
12636;BME280;6383;50.830;7.210;2023-04-06T12:19:24;100810.22;;;15.13;35.55
12636;BME280;6383;50.830;7.210;2023-04-06T12:21:54;100819.69;;;15.16;36.13
12636;BME280;6383;50.830;7.210;2023-04-06T12:24:24;100808.41;;;15.17;35.79
12636;BME280;6383;50.830;7.210;2023-04-06T12:26:53;100805.69;;;15.17;35.77
12636;BME280;6383;50.830;7.210;2023-04-06T12:29:24;100809.53;;;15.16;35.48
12636;BME280;6383;50.830;7.210;2023-04-06T12:31:53;100811.16;;;15.17;35.04
12636;BME280;6383;50.830;7.210;2023-04-06T12:34:21;100810.66;;;15.15;35.26
12636;BME280;6383;50.830;7.210;2023-04-06T12:36:50;100811.81;;;15.14;35.25
12636;BME280;6383;50.830;7.210;2023-04-06T12:39:19;100816.03;;;15.12;35.24
12636;BME280;6383;50.830;7.210;2023-04-06T12:41:47;100812.47;;;15.11;35.31
12636;BME280;6383;50.830;7.210;2023-04-06T12:44:16;100810.06;;;15.10;35.44
12636;BME280;6383;50.830;7.210;2023-04-06T12:46:45;100810.06;;;15.10;35.18
12636;BME280;6383;50.830;7.210;2023-04-06T12:49:15;100800.53;;;15.07;35.46
12636;BME280;6383;50.830;7.210;2023-04-06T12:51:47;100808.75;;;15.07;35.50
12636;BME280;6383;50.830;7.210;2023-04-06T12:54:15;100798.94;;;15.06;34.73
12636;BME280;6383;50.830;7.210;2023-04-06T12:56:43;100803.13;;;15.04;34.76
12636;BME280;6383;50.830;7.210;2023-04-06T12:59:13;100804.25;;;15.03;35.61
12636;BME280;6383;50.830;7.210;2023-04-06T13:01:42;100800.38;;;15.04;35.78
12636;BME280;6383;50.830;7.210;2023-04-06T13:04:10;100796.81;;;15.03;34.68
12636;BME280;6383;50.830;7.210;2023-04-06T13:06:41;100796.03;;;15.03;34.32
12636;BME280;6383;50.830;7.210;2023-04-06T13:09:08;100794.72;;;15.00;34.17
12636;BME280;6383;50.830;7.210;2023-04-06T13:11:37;100786.81;;;14.99;34.90
12636;BME280;6383;50.830;7.210;2023-04-06T13:14:06;100793.47;;;14.98;34.19
12636;BME280;6383;50.830;7.210;2023-04-06T13:16:34;100792.16;;;14.95;34.53
12636;BME280;6383;50.830;7.210;2023-04-06T13:19:02;100793.31;;;14.94;34.75
12636;BME280;6383;50.830;7.210;2023-04-06T13:21:30;100788.63;;;14.95;34.99